Aérodrome :
LOGIN :

S'inscrire | Disclaimer

   EN    FR    IT 

 










Légende :    VFR   VFR Marginal   IFR   IFR Intensif   IFR Très Intensif
Visi : 
Plafond : 
>= 8 km
>= 3000ft
5 à 8 km
1000 à 3000 ft
1500m à 5 km
500 à 1000 ft
800 à 1500m
200 à 500 ft
< 800m
< 200 ft
Symboles :   Orages  Brouillard  Fortes neiges  Fortes précipitations  Vent > 20 kt
SIGMETs :   Divers  Orages  Givrage  Turbulence  Onde Orograph.  Cendres Volcan.







- Altitude de l'aérodrome : 16 ft
- Code IATA : SDR


LEXJ - Santander Cantabria

DERNIER METAR :
  • 301200Z 20010KT 150V260 CAVOK 23/09 Q1018

METARs EXPIRÉS :
  • 301130Z 19009KT 140V250 CAVOK 23/08 Q1018
  • 301100Z 21010KT 160V260 CAVOK 23/08 Q1019
  • 301030Z 21009KT 160V270 CAVOK 23/08 Q1019
  • 301000Z 22009KT 170V280 CAVOK 22/07 Q1019
  • 300930Z 21008KT 170V260 CAVOK 22/07 Q1019

TAF TAF LEXJ
Valide du 30 à 09h jusqu'au 31 à 09h UTC


300800Z 3009/3109 20009KT CAVOK TX24/3014Z TN10/3106Z
PROB40
TEMPO 3009/3014 21015G25KT
TEMPO 3014/3018 SCT040TCU
PROB40
TEMPO 3021/3024 23015G25KT
PROB40
TEMPO 3100/3109 4000 RA SHRA SCT030TCU
Pas de NOTAMs connus pour ce terrain.



MET'MAP, la Météo Aéronautique d'un coup d'oeil ! - Copyright ORBIFLY Décembre 2007 - Disclaimer

ORBIFLY MET'MAP TEAM :

Programmation & Développement : Alexandra Zaïnal
Conception & Développement : Baudouin d'Aumeries
Co-Programmation & Développement : Marc-Olivier Méhu
Soutien technique & logistique : Manuel Goepfert

Contact : metmap@orbifly.com




SOURCES & CREDITS :

   NOAA